Tiger — 9HA2271 — position and weather

sailwx.info

Track history (hours):
 
Tides and Currents Weather Stations Pressure Air Temp Water Temp Dewpoint Dewpoint Depression Visibility Wind Speed Wind Dir Waves Ship Positions

Tiger

Last reported at 2016-Feb-05 02:24 UTC. Time now 2016-Feb-10 10:51 UTC.
Position N 40°26' W 073°47'.

Length 228 m; draft 8.7 m.

Type: Cargo ship. MMSI: 248223000.

Date/timePositionNaut miles runAvg speedWind from/ knotsBaromVisibWave heightAir tempDewpointWater temp
2016-Feb-05 02:24N 40°26' W 073°47'7 8.6
2016-Feb-05 01:33N 40°30' W 073°56'1111.5
2016-Feb-05 00:33N 40°39' W 074°04'4 3.7
2016-Feb-04 23:33N 40°41' W 074°08'1 0.8
2016-Feb-04 22:33N 40°42' W 074°09'0 0.0
2016-Feb-04 21:33N 40°42' W 074°09'0 0.0
2016-Feb-04 20:33N 40°42' W 074°09'0 0.0
2016-Feb-04 19:33N 40°42' W 074°09'0 0.0
2016-Feb-04 18:33N 40°42' W 074°09'0 0.0
2016-Feb-04 17:33N 40°42' W 074°09'0 0.0
2016-Feb-04 16:33N 40°42' W 074°09'0 0.0
2016-Feb-04 15:33N 40°42' W 074°09'0 0.0
2016-Feb-04 14:33N 40°42' W 074°09'0 0.0
2016-Feb-04 13:27N 40°42' W 074°09'0 0.0
2016-Feb-04 12:33N 40°42' W 074°09'3 2.9
2016-Feb-04 11:33N 40°39' W 074°09'5 5.3
2016-Feb-04 10:34N 40°37' W 074°03'12 9.7
2016-Feb-04 09:21N 40°28' W 073°52'41 8.5
2016-Feb-04 04:34N 39°48' W 073°41'10 9.0
2016-Feb-04 03:28N 39°39' W 073°44'8 9.3
2016-Feb-04 02:33N 39°31' W 073°49'9 9.2
2016-Feb-04 01:33N 39°23' W 073°54'57 9.3
2016-Feb-03 19:21N 38°30' W 074°23'10 9.3
2016-Feb-03 18:14N 38°20' W 074°28'7 9.4
2016-Feb-03 17:32N 38°14' W 074°31'10412.6
2016-Feb-03 09:14N 36°49' W 075°47'7 9.8
2016-Feb-03 08:33N 36°53' W 075°54'1010.4
2016-Feb-03 07:33N 37°01' W 076°02'1715.7
2016-Feb-03 06:29N 37°17' W 076°07'1818.2
2016-Feb-03 05:29N 37°35' W 076°04'1617.4
2016-Feb-03 04:32N 37°51' W 076°10'1918.7
2016-Feb-03 03:33N 38°09' W 076°14'1818.6
2016-Feb-03 02:33N 38°27' W 076°22'1818.1
2016-Feb-03 01:33N 38°44' W 076°26'1716.7
2016-Feb-03 00:33N 39°01' W 076°23'1212.4
2016-Feb-02 23:33N 39°12' W 076°30'3 3.0
2016-Feb-02 22:26N 39°15' W 076°32'0 0.0
2016-Feb-02 18:29N 39°15' W 076°32'0 0.0
2016-Feb-02 15:32N 39°15' W 076°32'2 2.0
2016-Feb-02 14:28N 39°13' W 076°31'1010.3
2016-Feb-02 13:33N 39°05' W 076°24'1615.7
2016-Feb-02 12:33N 38°50' W 076°25'3918.1
2016-Feb-02 10:22N 38°11' W 076°14'1618.7
2016-Feb-02 09:32N 37°56' W 076°10'5117.2
2016-Feb-02 06:33N 37°05' W 076°06'1312.9
2016-Feb-02 05:33N 36°55' W 075°55'14410.3
2016-Feb-01 15:33N 34°32' W 075°49'1413.9
2016-Feb-01 14:33N 34°23' W 076°01'1313.2
2016-Feb-01 13:33N 34°14' W 076°14'  
2016-Jan-29 06:28N 26°18' W 079°26'1718.5
2016-Jan-29 05:34N 26°02' W 079°29'2019.2
2016-Jan-29 04:32N 25°42' W 079°32'  
2016-Jan-26 23:30N 29°21' W 094°42'5 4.7
2016-Jan-26 22:31N 29°19' W 094°47'0 0.0
2016-Jan-26 21:28N 29°19' W 094°47'0 0.0
2016-Jan-26 17:10N 29°19' W 094°47'0 0.0
2016-Jan-26 16:28N 29°19' W 094°47'0 0.1
2016-Jan-26 15:33N 29°19' W 094°47'  
Track history (hours):
 
Tides and Currents Weather Stations Pressure Air Temp Water Temp Dewpoint Dewpoint Depression Visibility Wind Speed Wind Dir Waves Ship Positions

Tiger

Last reported at 2016-Feb-05 02:24 UTC. Time now 2016-Feb-10 10:51 UTC.
Position N 40°26' W 073°47'.

Length 228 m; draft 8.7 m.

Type: Cargo ship. MMSI: 248223000.

Date/timePositionNaut miles runAvg speedWind from/ knotsBaromVisibWave heightAir tempDewpointWater temp
2016-Feb-05 02:24N 40°26' W 073°47'7 8.6
2016-Feb-05 01:33N 40°30' W 073°56'1111.5
2016-Feb-05 00:33N 40°39' W 074°04'4 3.7
2016-Feb-04 23:33N 40°41' W 074°08'1 0.8
2016-Feb-04 22:33N 40°42' W 074°09'0 0.0
2016-Feb-04 21:33N 40°42' W 074°09'0 0.0
2016-Feb-04 20:33N 40°42' W 074°09'0 0.0
2016-Feb-04 19:33N 40°42' W 074°09'0 0.0
2016-Feb-04 18:33N 40°42' W 074°09'0 0.0
2016-Feb-04 17:33N 40°42' W 074°09'0 0.0
2016-Feb-04 16:33N 40°42' W 074°09'0 0.0
2016-Feb-04 15:33N 40°42' W 074°09'0 0.0
2016-Feb-04 14:33N 40°42' W 074°09'0 0.0
2016-Feb-04 13:27N 40°42' W 074°09'0 0.0
2016-Feb-04 12:33N 40°42' W 074°09'3 2.9
2016-Feb-04 11:33N 40°39' W 074°09'5 5.3
2016-Feb-04 10:34N 40°37' W 074°03'12 9.7
2016-Feb-04 09:21N 40°28' W 073°52'41 8.5
2016-Feb-04 04:34N 39°48' W 073°41'10 9.0
2016-Feb-04 03:28N 39°39' W 073°44'8 9.3
2016-Feb-04 02:33N 39°31' W 073°49'9 9.2
2016-Feb-04 01:33N 39°23' W 073°54'57 9.3
2016-Feb-03 19:21N 38°30' W 074°23'10 9.3
2016-Feb-03 18:14N 38°20' W 074°28'7 9.4
2016-Feb-03 17:32N 38°14' W 074°31'10412.6
2016-Feb-03 09:14N 36°49' W 075°47'7 9.8
2016-Feb-03 08:33N 36°53' W 075°54'1010.4
2016-Feb-03 07:33N 37°01' W 076°02'1715.7
2016-Feb-03 06:29N 37°17' W 076°07'1818.2
2016-Feb-03 05:29N 37°35' W 076°04'1617.4
2016-Feb-03 04:32N 37°51' W 076°10'1918.7
2016-Feb-03 03:33N 38°09' W 076°14'1818.6
2016-Feb-03 02:33N 38°27' W 076°22'1818.1
2016-Feb-03 01:33N 38°44' W 076°26'1716.7
2016-Feb-03 00:33N 39°01' W 076°23'1212.4
2016-Feb-02 23:33N 39°12' W 076°30'3 3.0
2016-Feb-02 22:26N 39°15' W 076°32'0 0.0
2016-Feb-02 18:29N 39°15' W 076°32'0 0.0
2016-Feb-02 15:32N 39°15' W 076°32'2 2.0
2016-Feb-02 14:28N 39°13' W 076°31'1010.3
2016-Feb-02 13:33N 39°05' W 076°24'1615.7
2016-Feb-02 12:33N 38°50' W 076°25'3918.1
2016-Feb-02 10:22N 38°11' W 076°14'1618.7
2016-Feb-02 09:32N 37°56' W 076°10'5117.2
2016-Feb-02 06:33N 37°05' W 076°06'1312.9
2016-Feb-02 05:33N 36°55' W 075°55'14410.3
2016-Feb-01 15:33N 34°32' W 075°49'1413.9
2016-Feb-01 14:33N 34°23' W 076°01'1313.2
2016-Feb-01 13:33N 34°14' W 076°14'  
2016-Jan-29 06:28N 26°18' W 079°26'1718.5
2016-Jan-29 05:34N 26°02' W 079°29'2019.2
2016-Jan-29 04:32N 25°42' W 079°32'  
2016-Jan-26 23:30N 29°21' W 094°42'5 4.7
2016-Jan-26 22:31N 29°19' W 094°47'0 0.0
2016-Jan-26 21:28N 29°19' W 094°47'0 0.0
2016-Jan-26 17:10N 29°19' W 094°47'0 0.0
2016-Jan-26 16:28N 29°19' W 094°47'0 0.1
2016-Jan-26 15:33N 29°19' W 094°47'  

Dump ship's entire track history